createdAt,value
2018-12-12T00:00:22.570Z,5.70
2018-12-12T00:02:48.787Z,7.33
2018-12-12T00:05:15.107Z,5.50
2018-12-12T00:07:41.267Z,5.50
2018-12-12T00:10:10.458Z,7.13
2018-12-12T00:12:37.200Z,6.10
2018-12-12T00:15:04.724Z,5.37
2018-12-12T00:17:31.018Z,6.37
2018-12-12T00:19:57.309Z,6.60
2018-12-12T00:22:23.560Z,7.63
2018-12-12T00:24:49.673Z,6.47
2018-12-12T00:27:15.907Z,6.60
2018-12-12T00:29:42.030Z,7.70
2018-12-12T00:32:08.326Z,6.60
2018-12-12T00:34:34.481Z,7.30
2018-12-12T00:37:00.715Z,5.90
2018-12-12T00:39:26.950Z,6.40
2018-12-12T00:41:54.063Z,6.77
2018-12-12T00:44:20.346Z,5.90
2018-12-12T00:46:46.706Z,5.45
2018-12-12T00:49:12.946Z,5.73
2018-12-12T00:51:39.287Z,5.20
2018-12-12T00:54:05.840Z,5.55
2018-12-12T00:56:32.031Z,5.40
2018-12-12T00:58:58.163Z,5.03
2018-12-12T01:01:24.458Z,4.87
2018-12-12T01:03:50.545Z,5.83
2018-12-12T01:06:16.757Z,5.37
2018-12-12T01:08:43.110Z,5.27
2018-12-12T01:11:15.771Z,5.60
2018-12-12T01:13:41.864Z,4.90
2018-12-12T01:16:08.059Z,5.70
2018-12-12T01:18:34.308Z,5.92
2018-12-12T01:21:00.430Z,5.50
2018-12-12T01:23:26.537Z,5.40
2018-12-12T01:25:52.796Z,5.90
2018-12-12T01:28:18.885Z,5.97
2018-12-12T01:30:45.301Z,5.70
2018-12-12T01:33:11.459Z,5.53
2018-12-12T01:35:37.673Z,5.50
2018-12-12T01:38:03.863Z,6.53
2018-12-12T01:40:30.265Z,5.40
2018-12-12T01:42:56.393Z,5.50
2018-12-12T01:45:22.634Z,5.20
2018-12-12T01:47:48.785Z,5.53
2018-12-12T01:50:15.020Z,4.77
2018-12-12T01:52:41.105Z,5.50
2018-12-12T01:55:07.349Z,5.33
2018-12-12T01:57:33.600Z,4.70
2018-12-12T01:59:59.854Z,5.65
2018-12-12T02:02:26.077Z,6.33
2018-12-12T02:04:52.328Z,5.20
2018-12-12T02:07:18.996Z,4.57
2018-12-12T02:09:45.222Z,5.33
2018-12-12T02:12:12.320Z,5.27
2018-12-12T02:14:38.487Z,5.23
2018-12-12T02:17:04.635Z,5.65
2018-12-12T02:19:30.930Z,6.37
2018-12-12T02:21:57.947Z,5.85
2018-12-12T02:24:24.076Z,4.80
2018-12-12T02:26:50.197Z,5.43
2018-12-12T02:29:16.445Z,6.30
2018-12-12T02:31:42.601Z,5.20
2018-12-12T02:34:08.730Z,5.50
2018-12-12T02:36:34.870Z,5.90
2018-12-12T02:39:01.083Z,5.67
2018-12-12T02:41:27.206Z,5.70
2018-12-12T02:43:53.543Z,5.47
2018-12-12T02:46:19.988Z,6.00
2018-12-12T02:48:46.253Z,5.83
2018-12-12T02:51:19.408Z,6.53
2018-12-12T02:53:46.161Z,7.03
2018-12-12T02:56:12.380Z,7.00
2018-12-12T02:58:38.793Z,6.37
2018-12-12T03:01:05.002Z,6.30
2018-12-12T03:03:31.319Z,6.80
2018-12-12T03:05:57.546Z,7.47
2018-12-12T03:08:23.671Z,6.93
2018-12-12T03:10:49.898Z,8.50
2018-12-12T03:13:16.136Z,10.05
2018-12-12T03:15:42.352Z,8.77
2018-12-12T03:18:08.511Z,9.23
2018-12-12T03:20:34.848Z,9.83
2018-12-12T03:23:00.934Z,8.87
2018-12-12T03:25:27.030Z,8.63
2018-12-12T03:27:53.193Z,7.87
2018-12-12T03:30:19.429Z,8.33
2018-12-12T03:32:45.542Z,7.33
2018-12-12T03:35:11.811Z,9.17
2018-12-12T03:37:37.969Z,8.30
2018-12-12T03:40:05.216Z,8.10
2018-12-12T03:42:32.003Z,8.23
2018-12-12T03:44:58.130Z,8.83
2018-12-12T03:47:24.598Z,9.57
2018-12-12T03:49:51.773Z,8.90
2018-12-12T03:52:17.909Z,8.50
2018-12-12T03:54:44.099Z,8.10
2018-12-12T03:57:10.250Z,9.95
2018-12-12T03:59:36.453Z,7.23
2018-12-12T04:02:02.919Z,8.87
2018-12-12T04:04:29.282Z,8.53
2018-12-12T04:06:55.416Z,7.77
2018-12-12T04:09:21.545Z,9.23
2018-12-12T04:11:47.760Z,9.53
2018-12-12T04:14:14.070Z,8.50
2018-12-12T04:16:41.295Z,8.70
2018-12-12T04:19:07.634Z,8.60
2018-12-12T04:21:34.031Z,8.57
2018-12-12T04:24:00.300Z,8.45
2018-12-12T04:26:26.606Z,9.23
2018-12-12T04:28:52.770Z,8.43
2018-12-12T04:31:18.993Z,8.60
2018-12-12T04:33:45.182Z,8.43
2018-12-12T04:36:11.482Z,8.70
2018-12-12T04:38:37.634Z,8.77
2018-12-12T04:41:03.884Z,9.18
2018-12-12T04:43:31.039Z,9.00
2018-12-12T04:45:57.424Z,10.10
2018-12-12T04:48:23.593Z,8.73
2018-12-12T04:50:50.839Z,8.37
2018-12-12T04:53:17.898Z,9.73
2018-12-12T04:55:45.069Z,9.08
2018-12-12T04:58:12.012Z,8.30
2018-12-12T05:00:38.396Z,10.90
2018-12-12T05:03:05.115Z,11.10
2018-12-12T05:05:32.621Z,11.73
2018-12-12T05:07:58.727Z,12.03
2018-12-12T05:10:24.963Z,11.00
2018-12-12T05:12:51.241Z,10.97
2018-12-12T05:15:18.465Z,12.80
2018-12-12T05:17:44.660Z,11.30
2018-12-12T05:20:10.837Z,13.00
2018-12-12T05:22:36.965Z,12.37
2018-12-12T05:25:03.786Z,12.05
2018-12-12T05:27:31.933Z,12.13
2018-12-12T05:29:59.998Z,11.40
2018-12-12T05:32:26.573Z,12.63
2018-12-12T05:34:52.733Z,10.98
2018-12-12T05:37:18.955Z,12.13
2018-12-12T05:39:52.454Z,12.03
2018-12-12T05:42:19.724Z,12.80
2018-12-12T05:44:46.017Z,12.10
2018-12-12T05:47:12.321Z,11.70
2018-12-12T05:49:39.478Z,11.80
2018-12-12T05:52:05.757Z,11.20
2018-12-12T05:54:31.869Z,11.27
2018-12-12T05:56:58.573Z,11.25
2018-12-12T05:59:27.573Z,10.23
2018-12-12T06:01:54.033Z,9.40
2018-12-12T06:04:20.429Z,9.90
2018-12-12T06:06:46.584Z,10.07
2018-12-12T06:09:13.181Z,11.00
2018-12-12T06:11:39.446Z,9.65
2018-12-12T06:14:05.657Z,9.90
2018-12-12T06:16:31.965Z,11.43
2018-12-12T06:18:58.164Z,9.55
2018-12-12T06:21:24.393Z,9.57
2018-12-12T06:23:50.623Z,9.00
2018-12-12T06:26:16.910Z,9.50
2018-12-12T06:28:43.985Z,10.73
2018-12-12T06:31:10.368Z,9.90
2018-12-12T06:33:36.628Z,10.55
2018-12-12T06:36:02.912Z,10.50
2018-12-12T06:38:29.910Z,11.10
2018-12-12T06:40:57.794Z,10.20
2018-12-12T06:43:24.079Z,11.60
2018-12-12T06:45:50.293Z,10.05
2018-12-12T06:48:16.458Z,9.83
2018-12-12T06:50:42.606Z,10.03
2018-12-12T06:53:08.907Z,10.55
2018-12-12T06:55:35.171Z,10.60
2018-12-12T06:58:01.565Z,9.17
2018-12-12T07:00:27.938Z,10.80
2018-12-12T07:02:54.231Z,10.00
2018-12-12T07:05:20.437Z,10.40
2018-12-12T07:07:46.716Z,12.10
2018-12-12T07:10:13.121Z,9.20
2018-12-12T07:12:40.170Z,11.27
2018-12-12T07:15:06.497Z,11.68
2018-12-12T07:17:32.893Z,10.00
2018-12-12T07:19:59.301Z,10.98
2018-12-12T07:22:25.547Z,10.50
2018-12-12T07:24:51.815Z,10.70
2018-12-12T07:27:18.023Z,11.13
2018-12-12T07:29:44.691Z,10.90
2018-12-12T07:32:11.225Z,10.27
2018-12-12T07:34:37.386Z,10.82
2018-12-12T07:37:04.494Z,10.13
2018-12-12T07:39:30.641Z,10.40
2018-12-12T07:42:00.857Z,8.83
2018-12-12T07:44:27.088Z,7.60
2018-12-12T07:46:53.817Z,8.50
2018-12-12T07:49:20.872Z,9.77
2018-12-12T07:51:47.123Z,7.00
2018-12-12T07:54:13.225Z,8.77
2018-12-12T07:56:39.426Z,7.78
2018-12-12T07:59:05.708Z,8.80
2018-12-12T08:01:31.865Z,8.23
2018-12-12T08:03:58.094Z,7.80
2018-12-12T08:06:24.382Z,8.40
2018-12-12T08:08:50.701Z,9.67
2018-12-12T08:11:16.882Z,7.83
2018-12-12T08:13:43.129Z,8.80
2018-12-12T08:16:09.338Z,9.67
2018-12-12T08:18:35.613Z,8.80
2018-12-12T08:21:02.048Z,9.67
2018-12-12T08:23:28.973Z,7.53
2018-12-12T08:25:55.378Z,7.47
2018-12-12T08:28:22.451Z,9.10
2018-12-12T08:30:48.809Z,6.97
2018-12-12T08:33:15.111Z,7.47
2018-12-12T08:35:41.358Z,7.57
2018-12-12T08:38:07.454Z,8.50
2018-12-12T08:40:33.609Z,8.10
2018-12-12T08:42:59.899Z,7.73
2018-12-12T08:45:26.025Z,8.50
2018-12-12T08:47:52.977Z,7.83
2018-12-12T08:50:19.198Z,7.87
2018-12-12T08:52:45.536Z,8.97
2018-12-12T08:55:17.440Z,8.10
2018-12-12T08:57:40.001Z,8.40
2018-12-12T09:00:06.805Z,9.27
2018-12-12T09:02:33.151Z,9.17
2018-12-12T09:04:59.307Z,8.80
2018-12-12T09:07:25.435Z,9.47
2018-12-12T09:09:51.700Z,8.38
2018-12-12T09:12:17.920Z,6.70
2018-12-12T09:14:44.064Z,7.37
2018-12-12T09:17:10.285Z,7.28
2018-12-12T09:19:36.477Z,6.27
2018-12-12T09:22:02.799Z,6.53
2018-12-12T09:24:28.893Z,8.33
2018-12-12T09:26:54.987Z,7.53
2018-12-12T09:29:21.131Z,8.07
2018-12-12T09:31:48.231Z,8.28
2018-12-12T09:34:14.441Z,8.07
2018-12-12T09:36:40.549Z,7.40
2018-12-12T09:39:07.718Z,8.33
2018-12-12T09:41:34.096Z,8.50
2018-12-12T09:44:00.336Z,8.07
2018-12-12T09:46:26.485Z,7.43
2018-12-12T09:48:52.676Z,9.00
2018-12-12T09:51:18.943Z,7.93
2018-12-12T09:53:45.120Z,8.90
2018-12-12T09:56:11.333Z,9.20
2018-12-12T09:58:37.559Z,9.83
2018-12-12T10:01:03.958Z,8.65
2018-12-12T10:03:31.292Z,9.27
2018-12-12T10:05:57.789Z,10.13
2018-12-12T10:08:24.263Z,9.57
2018-12-12T10:10:50.475Z,9.90
2018-12-12T10:13:16.863Z,10.37
2018-12-12T10:15:43.032Z,10.32
2018-12-12T10:18:09.374Z,12.10
2018-12-12T10:20:35.666Z,9.40
2018-12-12T10:23:01.761Z,10.30
2018-12-12T10:25:27.979Z,10.80
2018-12-12T10:27:54.110Z,10.73
2018-12-12T10:30:20.304Z,11.10
2018-12-12T10:32:46.538Z,11.12
2018-12-12T10:35:12.772Z,10.80
2018-12-12T10:37:38.900Z,10.90
2018-12-12T10:40:05.383Z,11.25
2018-12-12T10:42:31.550Z,11.60
2018-12-12T10:44:57.832Z,10.60
2018-12-12T10:47:23.975Z,10.85
2018-12-12T10:49:50.235Z,10.90
2018-12-12T10:52:16.649Z,9.70
2018-12-12T10:54:43.308Z,11.20
2018-12-12T10:57:09.654Z,11.90
2018-12-12T10:59:35.782Z,11.22
2018-12-12T11:05:11.460Z,10.23
2018-12-12T11:07:37.698Z,10.90
2018-12-12T11:10:04.399Z,9.20
2018-12-12T11:12:31.406Z,10.13
2018-12-12T11:14:57.699Z,9.40
2018-12-12T11:17:24.006Z,9.65
2018-12-12T11:19:50.891Z,10.10
2018-12-12T11:22:17.079Z,9.63
2018-12-12T11:24:43.383Z,9.97
2018-12-12T11:27:09.601Z,9.63
2018-12-12T11:29:43.751Z,8.90
2018-12-12T11:32:10.093Z,9.00
2018-12-12T11:34:36.394Z,9.75
2018-12-12T11:37:03.664Z,11.33
2018-12-12T11:39:29.766Z,12.10
2018-12-12T11:41:55.876Z,10.20
2018-12-12T11:44:21.962Z,10.55
2018-12-12T11:46:48.177Z,9.05
2018-12-12T11:49:14.429Z,10.07
2018-12-12T11:51:42.173Z,10.35
2018-12-12T11:54:08.400Z,9.60
2018-12-12T11:56:34.661Z,10.60
2018-12-12T11:59:00.917Z,9.53
2018-12-12T12:01:27.148Z,9.00
2018-12-12T12:03:56.766Z,8.40
2018-12-12T12:06:22.599Z,9.53
2018-12-12T12:08:49.584Z,8.43
2018-12-12T12:11:15.807Z,8.90
2018-12-12T12:13:41.938Z,10.07
2018-12-12T12:16:08.185Z,9.50
2018-12-12T12:18:34.516Z,12.10
2018-12-12T12:21:00.825Z,8.73
2018-12-12T12:23:27.056Z,13.27
2018-12-12T12:25:53.253Z,12.83
2018-12-12T12:28:19.464Z,7.47
2018-12-12T12:30:45.537Z,7.00
2018-12-12T12:33:11.697Z,10.68
2018-12-12T12:35:37.804Z,8.40
2018-12-12T12:38:04.045Z,8.97
2018-12-12T12:40:30.195Z,11.90
2018-12-12T12:42:56.429Z,9.10
2018-12-12T12:45:23.027Z,9.50
2018-12-12T12:47:49.211Z,10.90
2018-12-12T12:50:15.400Z,9.23
2018-12-12T12:52:42.315Z,9.27
2018-12-12T12:55:09.597Z,10.17
2018-12-12T12:57:35.699Z,10.77
2018-12-12T13:00:03.114Z,10.00
2018-12-12T13:02:29.301Z,10.88
2018-12-12T13:04:55.454Z,11.47
2018-12-12T13:07:21.782Z,10.93
2018-12-12T13:09:48.934Z,10.20
2018-12-12T13:12:15.156Z,10.37
2018-12-12T13:14:41.406Z,11.10
2018-12-12T13:17:07.578Z,12.07
2018-12-12T13:19:34.477Z,11.97
2018-12-12T13:22:00.722Z,11.20
2018-12-12T13:24:26.930Z,12.17
2018-12-12T13:26:53.965Z,11.13
2018-12-12T13:29:20.503Z,10.72
2018-12-12T13:31:46.799Z,12.30
2018-12-12T13:34:16.260Z,11.40
2018-12-12T13:36:41.145Z,10.90
2018-12-12T13:39:08.161Z,12.30
2018-12-12T13:41:34.623Z,12.55
2018-12-12T13:44:01.067Z,11.83
2018-12-12T13:46:27.286Z,12.13
2018-12-12T13:49:00.639Z,12.33
2018-12-12T13:51:27.741Z,13.20
2018-12-12T13:53:53.928Z,12.20
2018-12-12T13:56:20.174Z,13.48
2018-12-12T13:58:47.278Z,13.03
2018-12-12T14:01:14.626Z,11.40
2018-12-12T14:03:40.911Z,12.03
2018-12-12T14:06:07.144Z,11.80
2018-12-12T14:08:33.431Z,12.67
2018-12-12T14:10:59.755Z,12.10
2018-12-12T14:13:25.923Z,11.67
2018-12-12T14:15:52.078Z,11.87
2018-12-12T14:18:18.225Z,13.13
2018-12-12T14:20:45.279Z,13.20
2018-12-12T14:23:11.470Z,12.30
2018-12-12T14:25:37.623Z,13.00
2018-12-12T14:28:03.817Z,11.08
2018-12-12T14:30:30.174Z,12.33
2018-12-12T14:32:56.402Z,11.73
2018-12-12T14:35:22.867Z,12.17
2018-12-12T14:37:49.000Z,12.17
2018-12-12T14:40:15.241Z,13.70
2018-12-12T14:42:41.398Z,13.55
2018-12-12T14:45:08.435Z,11.30
2018-12-12T14:47:34.533Z,12.50
2018-12-12T14:50:00.731Z,12.47
2018-12-12T14:52:29.487Z,13.43
2018-12-12T14:54:55.659Z,12.37
2018-12-12T14:57:22.069Z,12.47
2018-12-12T14:59:49.293Z,12.17
2018-12-12T15:02:15.552Z,12.60
2018-12-12T15:04:42.972Z,12.90
2018-12-12T15:07:11.057Z,11.80
2018-12-12T15:09:38.472Z,12.50
2018-12-12T15:12:05.132Z,12.82
2018-12-12T15:14:32.974Z,13.63
2018-12-12T15:16:59.415Z,11.83
2018-12-12T15:19:29.568Z,14.03
2018-12-12T15:21:57.213Z,13.77
2018-12-12T15:24:25.314Z,13.38
2018-12-12T15:26:51.690Z,14.23
2018-12-12T15:29:18.109Z,15.23
2018-12-12T15:34:48.671Z,14.33
2018-12-12T15:37:18.538Z,14.87
2018-12-12T15:42:45.993Z,13.07
2018-12-12T15:45:27.022Z,14.75
2018-12-12T15:47:56.936Z,15.00
2018-12-12T15:50:50.654Z,16.57
2018-12-12T15:59:40.538Z,15.67
2018-12-12T16:11:26.425Z,16.20
2018-12-12T16:14:20.712Z,14.93
2018-12-12T16:23:14.771Z,14.20
2018-12-12T16:25:58.966Z,15.00
2018-12-12T16:31:33.643Z,16.43
2018-12-12T16:37:06.795Z,17.13
2018-12-12T16:48:49.696Z,15.97
2018-12-12T16:54:27.539Z,15.87
2018-12-12T16:56:58.706Z,15.53
2018-12-12T16:59:52.875Z,14.43
2018-12-12T17:05:07.905Z,15.20
2018-12-12T17:07:34.036Z,13.70
2018-12-12T17:10:01.210Z,14.33
2018-12-12T17:12:27.429Z,17.00
2018-12-12T17:14:53.534Z,14.70
2018-12-12T17:17:20.483Z,15.50
2018-12-12T17:19:47.665Z,15.00
2018-12-12T17:22:13.832Z,15.27
2018-12-12T17:24:40.091Z,16.03
2018-12-12T17:27:07.458Z,17.37
2018-12-12T17:29:33.588Z,16.37
2018-12-12T17:31:59.808Z,17.30
2018-12-12T17:34:26.919Z,17.65
2018-12-12T17:36:53.134Z,17.73
2018-12-12T17:39:21.278Z,19.33
2018-12-12T17:41:49.086Z,17.50
2018-12-12T17:44:15.242Z,17.60
2018-12-12T17:46:42.631Z,17.30
2018-12-12T17:49:09.645Z,17.03
2018-12-12T17:51:35.868Z,18.60
2018-12-12T17:54:03.228Z,18.62
2018-12-12T17:56:29.349Z,16.67
2018-12-12T17:58:56.297Z,17.37
2018-12-12T18:01:22.650Z,17.13
2018-12-12T18:03:48.954Z,18.07
2018-12-12T18:06:15.180Z,19.77
2018-12-12T18:08:41.313Z,20.17
2018-12-12T18:11:08.419Z,21.10
2018-12-12T18:13:34.510Z,20.20
2018-12-12T18:16:00.616Z,19.73
2018-12-12T18:18:27.024Z,20.20
2018-12-12T18:20:54.258Z,18.62
2018-12-12T18:23:21.181Z,19.73
2018-12-12T18:25:49.368Z,19.80
2018-12-12T18:28:16.516Z,19.90
2018-12-12T18:30:42.612Z,21.10
2018-12-12T18:33:08.766Z,21.10
2018-12-12T18:35:35.189Z,20.07
2018-12-12T18:38:02.246Z,20.37
2018-12-12T18:40:28.394Z,20.32
2018-12-12T18:42:54.531Z,18.43
2018-12-12T18:45:20.728Z,20.10
2018-12-12T18:47:47.862Z,19.45
2018-12-12T18:50:14.136Z,20.67
2018-12-12T18:52:40.444Z,20.40
2018-12-12T18:55:06.875Z,20.00
2018-12-12T18:57:33.040Z,20.60
2018-12-12T18:59:59.531Z,20.70
2018-12-12T19:02:25.741Z,20.60
2018-12-12T19:04:51.981Z,21.20
2018-12-12T19:07:18.344Z,20.90
2018-12-12T19:09:44.624Z,21.63
2018-12-12T19:12:11.816Z,22.63
2018-12-12T19:14:41.022Z,21.00
2018-12-12T19:17:07.169Z,19.80
2018-12-12T19:19:33.293Z,21.73
2018-12-12T19:21:59.584Z,21.97
2018-12-12T19:24:25.733Z,21.17
2018-12-12T19:26:52.001Z,20.90
2018-12-12T19:29:18.143Z,20.57
2018-12-12T19:31:44.494Z,21.30
2018-12-12T19:34:10.669Z,21.17
2018-12-12T19:36:36.817Z,20.97
2018-12-12T19:39:06.058Z,20.73
2018-12-12T19:41:32.534Z,21.77
2018-12-12T19:43:58.967Z,20.85
2018-12-12T19:46:25.335Z,19.97
2018-12-12T19:48:51.480Z,22.90
2018-12-12T19:51:17.861Z,20.73
2018-12-12T19:53:44.075Z,21.90
2018-12-12T19:56:10.410Z,20.40
2018-12-12T19:58:36.681Z,20.92
2018-12-12T20:01:03.054Z,20.30
2018-12-12T20:03:29.435Z,21.27
2018-12-12T20:05:55.669Z,18.85
2018-12-12T20:08:21.998Z,20.63
2018-12-12T20:10:48.275Z,21.90
2018-12-12T20:13:14.586Z,21.00
2018-12-12T20:15:43.786Z,21.83
2018-12-12T20:18:10.165Z,21.00
2018-12-12T20:20:36.509Z,18.95
2018-12-12T20:23:02.824Z,21.63
2018-12-12T20:25:28.957Z,22.67
2018-12-12T20:27:55.128Z,21.53
2018-12-12T20:30:21.451Z,21.57
2018-12-12T20:32:47.746Z,20.13
2018-12-12T20:35:14.191Z,20.72
2018-12-12T20:37:40.361Z,21.90
2018-12-12T20:40:06.802Z,22.67
2018-12-12T20:42:33.188Z,22.37
2018-12-12T20:44:59.460Z,24.30
2018-12-12T20:47:25.662Z,21.40
2018-12-12T20:49:51.789Z,22.73
2018-12-12T20:52:17.940Z,20.02
2018-12-12T20:54:44.119Z,21.93
2018-12-12T21:00:06.619Z,21.80
2018-12-12T21:02:33.021Z,22.63
2018-12-12T21:04:59.245Z,20.80
2018-12-12T21:07:25.391Z,25.03
2018-12-12T21:09:51.512Z,23.70
2018-12-12T21:12:17.917Z,21.65
2018-12-12T21:14:44.820Z,22.97
2018-12-12T21:17:10.967Z,22.13
2018-12-12T21:19:38.252Z,20.00
2018-12-12T21:22:11.882Z,23.90
2018-12-12T21:24:38.149Z,19.57
2018-12-12T21:27:04.281Z,19.97
2018-12-12T21:29:30.843Z,19.60
2018-12-12T21:31:56.982Z,19.13
2018-12-12T21:34:23.126Z,18.50
2018-12-12T21:36:49.331Z,19.90
2018-12-12T21:39:22.677Z,18.43
2018-12-12T21:41:48.841Z,19.00
2018-12-12T21:44:15.134Z,17.10
2018-12-12T21:46:41.254Z,17.23
2018-12-12T21:49:07.512Z,17.80
2018-12-12T21:51:33.612Z,18.20
2018-12-12T21:53:59.731Z,17.52
2018-12-12T21:56:25.929Z,17.77
2018-12-12T21:58:52.267Z,17.97
2018-12-12T22:01:19.113Z,19.30
2018-12-12T22:03:45.305Z,19.57
2018-12-12T22:06:11.555Z,18.73
2018-12-12T22:08:37.717Z,18.37
2018-12-12T22:11:04.058Z,19.10
2018-12-12T22:13:30.382Z,18.42
2018-12-12T22:15:57.469Z,18.17
2018-12-12T22:18:23.658Z,19.93
2018-12-12T22:20:49.785Z,19.27
2018-12-12T22:23:16.989Z,18.12
2018-12-12T22:25:43.123Z,19.27
2018-12-12T22:28:09.297Z,17.73
2018-12-12T22:30:35.518Z,19.62
2018-12-12T22:33:01.640Z,18.93
2018-12-12T22:35:28.284Z,20.63
2018-12-12T22:37:54.641Z,20.17
2018-12-12T22:40:20.925Z,19.50
2018-12-12T22:42:47.069Z,21.83
2018-12-12T22:45:13.227Z,23.83
2018-12-12T22:47:39.347Z,22.07
2018-12-12T22:50:05.773Z,19.50
2018-12-12T22:52:31.902Z,20.43
2018-12-12T22:54:58.045Z,21.20
2018-12-12T22:57:24.170Z,22.40
2018-12-12T22:59:50.447Z,21.57
2018-12-12T23:02:16.610Z,21.23
2018-12-12T23:04:42.815Z,22.17
2018-12-12T23:07:08.940Z,24.23
2018-12-12T23:09:35.116Z,21.53
2018-12-12T23:12:01.635Z,23.60
2018-12-12T23:14:27.880Z,23.40
2018-12-12T23:16:54.041Z,19.23
2018-12-12T23:19:20.185Z,20.10
2018-12-12T23:21:46.418Z,20.85
2018-12-12T23:24:12.729Z,21.77
2018-12-12T23:26:38.871Z,21.00
2018-12-12T23:29:05.052Z,22.57
2018-12-12T23:31:31.261Z,22.87
2018-12-12T23:33:57.520Z,22.37
2018-12-12T23:36:26.885Z,22.53
2018-12-12T23:38:52.026Z,21.57
2018-12-12T23:41:18.242Z,20.53
2018-12-12T23:43:44.397Z,23.35
2018-12-12T23:46:10.638Z,22.33
2018-12-12T23:48:36.759Z,23.27
2018-12-12T23:51:02.905Z,21.68
2018-12-12T23:53:28.996Z,23.80
2018-12-12T23:55:55.199Z,22.57
2018-12-12T23:58:21.389Z,21.82
